createdAt,value
2018-09-30T00:02:28.511Z,3.70
2018-09-30T00:04:59.544Z,3.70
2018-09-30T00:07:30.716Z,3.40
2018-09-30T00:10:01.785Z,3.40
2018-09-30T00:12:32.498Z,3.20
2018-09-30T00:15:03.792Z,3.30
2018-09-30T00:17:34.341Z,3.40
2018-09-30T00:20:05.135Z,3.10
2018-09-30T00:22:35.703Z,2.90
2018-09-30T00:25:10.791Z,2.80
2018-09-30T00:27:41.128Z,3.00
2018-09-30T00:30:12.363Z,3.00
2018-09-30T00:32:43.319Z,3.00
2018-09-30T00:35:14.368Z,2.80
2018-09-30T00:37:47.953Z,2.40
2018-09-30T00:40:18.439Z,2.30
2018-09-30T00:42:49.045Z,2.30
2018-09-30T00:45:19.692Z,2.40
2018-09-30T00:47:50.126Z,2.50
2018-09-30T00:50:20.998Z,2.60
2018-09-30T00:52:51.997Z,2.30
2018-09-30T00:55:21.925Z,2.20
2018-09-30T00:57:52.735Z,2.20
2018-09-30T01:00:24.579Z,2.30
2018-09-30T01:02:54.086Z,2.40
2018-09-30T01:05:23.537Z,2.40
2018-09-30T01:07:56.644Z,2.50
2018-09-30T01:10:26.646Z,2.50
2018-09-30T01:12:58.338Z,2.40
2018-09-30T01:15:28.430Z,2.30
2018-09-30T01:17:58.533Z,2.30
2018-09-30T01:20:28.372Z,1.80
2018-09-30T01:22:58.364Z,1.70
2018-09-30T01:25:28.276Z,1.50
2018-09-30T01:27:58.172Z,1.40
2018-09-30T01:30:27.805Z,1.40
2018-09-30T01:32:57.256Z,1.30
2018-09-30T01:35:26.636Z,1.30
2018-09-30T01:37:55.930Z,1.40
2018-09-30T01:40:25.290Z,1.30
2018-09-30T01:42:58.061Z,1.00
2018-09-30T01:45:28.012Z,1.00
2018-09-30T01:47:57.713Z,1.20
2018-09-30T01:50:27.325Z,1.30
2018-09-30T01:52:58.610Z,1.20
2018-09-30T01:55:28.365Z,1.00
2018-09-30T01:57:58.132Z,0.90
2018-09-30T02:00:28.077Z,1.00
2018-09-30T02:02:57.990Z,1.10
2018-09-30T02:05:28.004Z,1.10
2018-09-30T02:07:58.109Z,1.20
2018-09-30T02:10:27.993Z,1.30
2018-09-30T02:12:57.985Z,1.30
2018-09-30T02:15:27.993Z,0.80
2018-09-30T02:17:58.017Z,0.80
2018-09-30T02:20:27.933Z,0.90
2018-09-30T02:22:57.539Z,1.00
2018-09-30T02:25:27.028Z,1.10
2018-09-30T02:27:56.392Z,0.60
2018-09-30T02:30:25.720Z,0.60
2018-09-30T02:32:55.423Z,0.60
2018-09-30T02:35:25.324Z,0.70
2018-09-30T02:37:55.162Z,0.70
2018-09-30T02:40:25.008Z,0.60
2018-09-30T02:42:54.970Z,0.50
2018-09-30T02:45:24.845Z,0.40
2018-09-30T02:47:54.701Z,0.50
2018-09-30T02:50:24.631Z,0.60
2018-09-30T02:52:54.427Z,0.30
2018-09-30T02:55:25.515Z,0.30
2018-09-30T02:57:55.205Z,0.20
2018-09-30T03:00:24.847Z,0.20
2018-09-30T03:02:54.677Z,0.30
2018-09-30T03:05:24.799Z,0.30
2018-09-30T03:08:00.347Z,0.40
2018-09-30T03:10:30.274Z,0.40
2018-09-30T03:13:00.242Z,0.50
2018-09-30T03:15:29.501Z,0.50
2018-09-30T03:17:58.900Z,0.50
2018-09-30T03:20:28.324Z,0.30
2018-09-30T03:22:58.130Z,0.40
2018-09-30T03:25:28.169Z,0.20
2018-09-30T03:27:58.025Z,0.10
2018-09-30T03:30:27.972Z,0.10
2018-09-30T03:32:58.339Z,0.10
2018-09-30T03:35:28.159Z,0.10
2018-09-30T03:37:58.449Z,0.00
2018-09-30T03:40:28.410Z,-0.10
2018-09-30T03:42:59.307Z,-0.20
2018-09-30T03:45:29.095Z,-0.20
2018-09-30T03:47:59.189Z,-0.10
2018-09-30T03:50:29.123Z,0.00
2018-09-30T03:52:58.937Z,0.00
2018-09-30T03:55:28.848Z,-0.10
2018-09-30T03:57:58.418Z,-0.10
2018-09-30T04:00:31.963Z,0.00
2018-09-30T04:03:01.732Z,0.10
2018-09-30T04:05:31.601Z,0.10
2018-09-30T04:08:01.627Z,0.20
2018-09-30T04:10:31.609Z,0.10
2018-09-30T04:13:01.459Z,-0.10
2018-09-30T04:15:31.181Z,-0.40
2018-09-30T04:18:01.174Z,-0.40
2018-09-30T04:20:31.167Z,-0.40
2018-09-30T04:23:01.104Z,-0.40
2018-09-30T04:25:31.086Z,-0.40
2018-09-30T04:28:15.173Z,-0.40
2018-09-30T04:30:45.038Z,-0.60
2018-09-30T04:33:15.024Z,-0.70
2018-09-30T04:35:44.930Z,-0.70
2018-09-30T04:38:30.355Z,-0.50
2018-09-30T04:47:47.587Z,-0.50
2018-09-30T04:54:08.410Z,-0.60
2018-09-30T05:25:04.408Z,-0.60
2018-09-30T05:34:12.940Z,-0.50
2018-09-30T05:39:54.063Z,-0.40
2018-09-30T05:45:40.264Z,-0.70
2018-09-30T05:58:11.735Z,-0.70
2018-09-30T06:01:10.989Z,-0.70
2018-09-30T06:06:45.874Z,-0.40
2018-09-30T06:09:33.932Z,-0.40
2018-09-30T06:12:20.485Z,-0.50
2018-09-30T06:15:19.181Z,-0.40
2018-09-30T06:18:21.268Z,-0.30
2018-09-30T06:31:09.680Z,0.30
2018-09-30T06:34:00.373Z,0.50
2018-09-30T06:36:46.504Z,0.60
2018-09-30T06:39:39.901Z,0.60
2018-09-30T06:42:22.043Z,0.80
2018-09-30T06:45:10.184Z,0.80
2018-09-30T06:47:54.915Z,1.00
2018-09-30T06:50:43.787Z,1.10
2018-09-30T06:53:17.533Z,1.20
2018-09-30T06:55:55.053Z,1.20
2018-09-30T06:58:25.353Z,1.30
2018-09-30T07:00:59.095Z,1.50
2018-09-30T07:03:31.156Z,1.70
2018-09-30T07:06:04.494Z,1.90
2018-09-30T07:08:34.481Z,2.10
2018-09-30T07:11:16.105Z,2.30
2018-09-30T07:13:54.827Z,2.60
2018-09-30T07:16:37.577Z,4.00
2018-09-30T07:19:10.017Z,9.40
2018-09-30T07:21:42.141Z,13.30
2018-09-30T07:24:38.211Z,16.40
2018-09-30T07:27:24.609Z,18.70
2018-09-30T07:30:20.673Z,20.60
2018-09-30T07:33:05.350Z,22.20
2018-09-30T07:35:38.039Z,23.60
2018-09-30T07:38:10.425Z,24.40
2018-09-30T07:40:42.583Z,25.40
2018-09-30T07:43:14.790Z,26.40
2018-09-30T07:45:47.776Z,26.80
2018-09-30T07:48:20.111Z,28.00
2018-09-30T07:50:58.121Z,28.20
2018-09-30T07:53:35.255Z,28.80
2018-09-30T07:56:07.806Z,29.50
2018-09-30T07:58:37.265Z,30.20
2018-09-30T08:01:06.761Z,30.30
2018-09-30T08:03:36.024Z,29.90
2018-09-30T08:06:05.338Z,30.20
2018-09-30T08:08:34.699Z,30.20
2018-09-30T08:11:03.975Z,30.30
2018-09-30T08:13:33.305Z,30.30
2018-09-30T08:16:02.593Z,31.00
2018-09-30T08:18:31.873Z,31.30
2018-09-30T08:21:01.221Z,32.60
2018-09-30T08:23:30.472Z,32.40
2018-09-30T08:26:01.846Z,33.10
2018-09-30T08:28:31.165Z,34.30
2018-09-30T08:31:00.488Z,34.90
2018-09-30T08:33:29.843Z,34.30
2018-09-30T08:36:04.300Z,34.00
2018-09-30T08:38:34.931Z,35.00
2018-09-30T08:41:06.238Z,35.70
2018-09-30T08:43:36.922Z,35.80
2018-09-30T08:46:06.317Z,34.10
2018-09-30T08:48:35.696Z,35.10
2018-09-30T08:51:05.137Z,36.40
2018-09-30T08:53:34.424Z,34.60
2018-09-30T08:56:05.900Z,35.90
2018-09-30T08:58:35.159Z,36.90
2018-09-30T09:01:04.473Z,36.80
2018-09-30T09:03:33.908Z,37.00
2018-09-30T09:06:03.190Z,36.80
2018-09-30T09:08:35.734Z,37.70
2018-09-30T09:11:05.036Z,37.40
2018-09-30T09:13:34.383Z,38.50
2018-09-30T09:16:03.735Z,38.20
2018-09-30T09:18:33.029Z,38.60
2018-09-30T09:21:02.327Z,37.40
2018-09-30T09:23:32.817Z,38.80
2018-09-30T09:26:02.174Z,38.80
2018-09-30T09:28:32.620Z,40.60
2018-09-30T09:31:01.922Z,41.30
2018-09-30T09:33:31.238Z,42.30
2018-09-30T09:36:00.591Z,42.70
2018-09-30T09:38:30.133Z,42.90
2018-09-30T09:41:15.921Z,43.50
2018-09-30T09:44:00.615Z,44.10
2018-09-30T09:46:43.782Z,44.90
2018-09-30T09:49:32.526Z,45.10
2018-09-30T09:52:06.489Z,43.70
2018-09-30T09:54:36.248Z,40.60
2018-09-30T09:57:05.756Z,38.10
2018-09-30T09:59:35.078Z,36.90
2018-09-30T10:02:04.467Z,34.30
2018-09-30T10:04:33.979Z,29.50
2018-09-30T10:07:03.351Z,26.80
2018-09-30T10:09:32.643Z,25.40
2018-09-30T10:12:04.158Z,23.90
2018-09-30T10:14:33.483Z,22.40
2018-09-30T10:17:02.771Z,21.30
2018-09-30T10:19:32.641Z,21.10
2018-09-30T10:22:02.161Z,20.80
2018-09-30T10:24:31.444Z,20.10
2018-09-30T10:27:00.838Z,19.50
2018-09-30T10:29:30.265Z,19.10
2018-09-30T10:31:59.543Z,18.80
2018-09-30T10:34:28.881Z,18.50
2018-09-30T10:36:58.201Z,18.00
2018-09-30T10:39:31.335Z,18.20
2018-09-30T10:42:00.599Z,18.10
2018-09-30T10:44:29.980Z,17.90
2018-09-30T10:47:10.286Z,17.90
2018-09-30T10:49:39.570Z,18.00
2018-09-30T10:52:08.961Z,17.80
2018-09-30T10:54:39.405Z,17.70
2018-09-30T10:57:11.413Z,17.70
2018-09-30T10:59:41.537Z,17.40
2018-09-30T11:05:05.988Z,17.00
2018-09-30T11:07:35.330Z,16.70
2018-09-30T11:10:04.803Z,16.50
2018-09-30T11:12:41.095Z,16.70
2018-09-30T11:15:10.392Z,16.60
2018-09-30T11:17:43.520Z,16.60
2018-09-30T11:20:13.031Z,16.60
2018-09-30T11:23:05.015Z,16.50
2018-09-30T11:25:34.339Z,16.60
2018-09-30T11:58:58.703Z,17.90
2018-09-30T12:01:44.441Z,17.30
2018-09-30T12:04:14.082Z,17.00
2018-09-30T12:06:55.408Z,16.60
2018-09-30T12:09:25.797Z,16.50
2018-09-30T12:12:07.105Z,16.30
2018-09-30T12:14:36.541Z,16.20
2018-09-30T12:17:07.162Z,16.10
2018-09-30T12:19:36.613Z,16.10
2018-09-30T12:22:07.089Z,16.00
2018-09-30T12:24:36.512Z,16.00
2018-09-30T12:27:05.894Z,16.00
2018-09-30T12:29:35.308Z,15.90
2018-09-30T12:32:18.375Z,15.90
2018-09-30T12:34:47.657Z,16.00
2018-09-30T12:37:21.323Z,16.00
2018-09-30T12:39:50.649Z,16.00
2018-09-30T12:42:24.973Z,16.00
2018-09-30T12:44:54.336Z,16.00
2018-09-30T12:47:29.652Z,16.00
2018-09-30T12:49:59.032Z,16.00
2018-09-30T12:52:36.046Z,16.00
2018-09-30T12:55:05.445Z,16.00
2018-09-30T12:57:34.856Z,16.00
2018-09-30T13:00:04.550Z,16.00
2018-09-30T13:02:54.638Z,16.00
2018-09-30T13:05:24.033Z,16.00
2018-09-30T13:08:09.905Z,16.00
2018-09-30T13:10:39.383Z,16.00
2018-09-30T13:13:09.831Z,16.00
2018-09-30T13:15:39.314Z,16.00
2018-09-30T13:18:13.048Z,16.00
2018-09-30T13:20:42.484Z,16.00
2018-09-30T13:23:29.631Z,16.00
2018-09-30T13:25:59.022Z,16.00
2018-09-30T13:28:28.460Z,16.10
2018-09-30T13:31:06.352Z,16.10
2018-09-30T13:33:35.782Z,16.10
2018-09-30T13:36:10.578Z,16.10
2018-09-30T13:38:40.097Z,16.10
2018-09-30T13:41:09.668Z,16.10
2018-09-30T13:43:38.987Z,16.10
2018-09-30T13:46:11.799Z,16.10
2018-09-30T13:48:41.528Z,16.10
2018-09-30T13:51:13.923Z,16.10
2018-09-30T13:53:47.126Z,16.10
2018-09-30T13:56:16.453Z,16.20
2018-09-30T13:58:46.892Z,16.10
2018-09-30T14:01:49.887Z,16.20
2018-09-30T14:04:19.308Z,16.20
2018-09-30T14:06:54.424Z,16.20
2018-09-30T14:09:23.790Z,16.20
2018-09-30T14:12:04.886Z,16.20
2018-09-30T14:14:34.342Z,16.20
2018-09-30T14:17:12.151Z,16.20
2018-09-30T14:19:41.489Z,16.30
2018-09-30T14:22:10.794Z,16.20
2018-09-30T14:24:40.193Z,16.30
2018-09-30T14:27:15.792Z,16.30
2018-09-30T14:29:45.924Z,16.30
2018-09-30T14:32:28.974Z,16.30
2018-09-30T14:34:58.502Z,16.30
2018-09-30T14:40:40.448Z,16.40
2018-09-30T14:43:13.641Z,16.40
2018-09-30T14:45:51.060Z,16.40
2018-09-30T14:48:22.683Z,16.40
2018-09-30T14:50:56.921Z,16.40
2018-09-30T14:53:28.992Z,16.40
2018-09-30T14:56:05.759Z,16.40
2018-09-30T14:58:40.172Z,16.40
2018-09-30T15:02:05.581Z,16.50
2018-09-30T15:04:38.727Z,16.50
2018-09-30T15:07:08.242Z,16.50
2018-09-30T15:09:38.770Z,16.50
2018-09-30T15:12:08.322Z,16.50
2018-09-30T15:14:37.803Z,16.50
2018-09-30T15:17:08.065Z,16.50
2018-09-30T15:19:37.545Z,16.50
2018-09-30T15:22:07.119Z,16.50
2018-09-30T15:24:37.558Z,16.50
2018-09-30T15:27:11.777Z,16.60
2018-09-30T15:29:44.423Z,16.60
2018-09-30T15:32:37.243Z,16.60
2018-09-30T15:35:54.442Z,16.60
2018-09-30T15:41:56.814Z,16.60
2018-09-30T15:51:37.585Z,16.60
2018-09-30T15:54:07.737Z,16.70
2018-09-30T16:00:14.100Z,16.60
2018-09-30T16:03:15.918Z,16.60
2018-09-30T16:05:50.088Z,16.70
2018-09-30T16:08:20.616Z,16.60
2018-09-30T16:13:50.158Z,16.70
2018-09-30T16:16:19.528Z,16.70
2018-09-30T16:18:55.237Z,16.70
2018-09-30T16:21:24.771Z,16.60
2018-09-30T16:24:00.183Z,16.70
2018-09-30T16:29:28.955Z,16.60
2018-09-30T16:31:58.857Z,16.70
2018-09-30T16:34:28.313Z,16.60
2018-09-30T16:36:57.672Z,16.60
2018-09-30T16:39:29.320Z,16.60
2018-09-30T16:42:01.040Z,16.60
2018-09-30T16:44:31.234Z,16.60
2018-09-30T16:47:00.607Z,16.50
2018-09-30T16:49:30.085Z,16.60
2018-09-30T16:51:59.690Z,16.60
2018-09-30T16:54:29.215Z,16.60
2018-09-30T16:57:08.969Z,16.60
2018-09-30T16:59:42.614Z,16.50
2018-09-30T17:02:12.189Z,16.50
2018-09-30T17:04:44.230Z,16.50
2018-09-30T17:07:14.620Z,16.50
2018-09-30T17:09:46.457Z,16.40
2018-09-30T17:12:15.871Z,16.40
2018-09-30T17:14:45.205Z,16.40
2018-09-30T17:17:14.554Z,16.30
2018-09-30T17:19:44.050Z,16.30
2018-09-30T17:22:13.387Z,16.20
2018-09-30T17:24:42.775Z,16.20
2018-09-30T17:27:12.169Z,16.20
2018-09-30T17:29:41.753Z,16.10
2018-09-30T17:32:11.164Z,16.10
2018-09-30T17:34:40.575Z,16.10
2018-09-30T17:37:11.847Z,16.20
2018-09-30T17:39:41.832Z,16.20
2018-09-30T17:42:15.121Z,16.20
2018-09-30T17:44:44.437Z,16.20
2018-09-30T17:47:19.754Z,16.20
2018-09-30T17:49:49.206Z,16.10
2018-09-30T17:52:25.383Z,16.10
2018-09-30T18:01:56.248Z,16.10
2018-09-30T18:04:56.077Z,16.30
2018-09-30T18:07:52.188Z,16.40
2018-09-30T18:10:57.667Z,16.30
2018-09-30T18:13:39.916Z,16.30
2018-09-30T18:16:12.002Z,16.20
2018-09-30T18:18:55.061Z,16.20
2018-09-30T18:21:24.506Z,16.10
2018-09-30T18:23:55.096Z,16.10
2018-09-30T18:26:24.530Z,16.10
2018-09-30T18:28:54.029Z,16.00
2018-09-30T18:31:23.513Z,16.00
2018-09-30T18:33:52.934Z,16.00
2018-09-30T18:36:24.421Z,16.00
2018-09-30T18:38:54.518Z,16.00
2018-09-30T18:41:29.650Z,15.90
2018-09-30T18:43:59.237Z,15.90
2018-09-30T18:46:35.515Z,15.90
2018-09-30T18:49:04.911Z,15.90
2018-09-30T18:51:34.329Z,15.80
2018-09-30T18:54:21.596Z,15.80
2018-09-30T18:56:50.864Z,15.80
2018-09-30T18:59:27.585Z,15.80
2018-09-30T19:01:56.910Z,15.70
2018-09-30T19:04:31.853Z,15.80
2018-09-30T19:07:01.143Z,15.70
2018-09-30T19:09:30.553Z,15.70
2018-09-30T19:12:04.074Z,15.70
2018-09-30T19:14:50.290Z,15.70
2018-09-30T19:17:19.830Z,15.60
2018-09-30T19:19:49.367Z,15.60
2018-09-30T19:22:18.660Z,15.60
2018-09-30T19:24:48.166Z,15.60
2018-09-30T19:27:17.548Z,15.60
2018-09-30T19:29:46.930Z,15.50
2018-09-30T19:32:16.280Z,15.50
2018-09-30T19:34:45.896Z,15.50
2018-09-30T19:37:17.158Z,15.40
2018-09-30T19:39:46.515Z,15.40
2018-09-30T19:42:15.910Z,15.40
2018-09-30T19:44:45.341Z,15.40
2018-09-30T19:47:14.684Z,15.40
2018-09-30T19:49:44.492Z,15.40
2018-09-30T19:52:15.872Z,15.40
2018-09-30T19:54:48.640Z,15.40
2018-09-30T19:57:18.032Z,15.40
2018-09-30T19:59:47.433Z,15.40
2018-09-30T20:02:16.915Z,15.30
2018-09-30T20:04:46.550Z,15.40
2018-09-30T20:07:34.274Z,15.30
2018-09-30T20:10:14.043Z,15.30
2018-09-30T20:12:43.878Z,15.30
2018-09-30T20:15:13.249Z,15.30
2018-09-30T20:17:44.522Z,15.30
2018-09-30T20:20:13.864Z,15.20
2018-09-30T20:22:43.332Z,15.20
2018-09-30T20:25:12.713Z,15.20
2018-09-30T20:27:42.099Z,15.20
2018-09-30T20:30:11.437Z,15.20
2018-09-30T20:32:40.853Z,15.20
2018-09-30T20:35:10.186Z,15.20
2018-09-30T20:37:39.668Z,15.20
2018-09-30T20:40:09.078Z,15.20
2018-09-30T20:42:38.452Z,15.10
2018-09-30T20:45:07.768Z,15.10
2018-09-30T20:47:37.117Z,15.10
2018-09-30T20:50:06.529Z,15.10
2018-09-30T20:52:35.797Z,15.10
2018-09-30T21:01:14.407Z,15.00
2018-09-30T21:03:47.699Z,15.00
2018-09-30T21:06:27.711Z,15.00
2018-09-30T21:09:00.609Z,15.00
2018-09-30T21:11:33.635Z,15.00
2018-09-30T21:14:08.376Z,15.00
2018-09-30T21:16:42.377Z,15.00
2018-09-30T21:22:04.929Z,14.90
2018-09-30T21:24:35.563Z,14.90
2018-09-30T21:27:06.116Z,14.90
2018-09-30T21:29:35.434Z,14.90
2018-09-30T21:32:04.696Z,14.90
2018-09-30T21:34:34.122Z,14.90
2018-09-30T21:37:03.428Z,14.90
2018-09-30T21:39:32.712Z,14.90
2018-09-30T21:42:02.206Z,14.90
2018-09-30T21:44:31.457Z,14.90
2018-09-30T21:47:00.854Z,14.90
2018-09-30T21:49:30.179Z,14.90
2018-09-30T21:51:59.568Z,14.90
2018-09-30T21:54:28.907Z,14.90
2018-09-30T21:56:58.404Z,14.90
2018-09-30T21:59:27.800Z,14.80
2018-09-30T22:01:57.265Z,14.80
2018-09-30T22:04:26.680Z,14.80
2018-09-30T22:06:56.125Z,14.80
2018-09-30T22:09:25.453Z,14.80
2018-09-30T22:11:54.981Z,14.80
2018-09-30T22:14:24.322Z,14.80
2018-09-30T22:16:53.748Z,14.80
2018-09-30T22:19:23.382Z,14.80
2018-09-30T22:21:52.717Z,14.70
2018-09-30T22:24:22.115Z,14.70
2018-09-30T22:26:51.668Z,14.70
2018-09-30T22:29:21.082Z,14.70
2018-09-30T22:31:50.447Z,14.70
2018-09-30T22:34:26.734Z,14.70
2018-09-30T22:36:56.054Z,14.70
2018-09-30T22:39:25.421Z,14.70
2018-09-30T22:41:56.085Z,14.70
2018-09-30T22:44:25.447Z,14.70
2018-09-30T22:47:02.789Z,14.70
2018-09-30T22:49:32.140Z,14.70
2018-09-30T22:52:01.674Z,14.70
2018-09-30T22:54:31.051Z,14.70
2018-09-30T22:57:00.667Z,14.70
2018-09-30T22:59:29.992Z,14.60
2018-09-30T23:01:59.471Z,14.60
2018-09-30T23:04:29.285Z,14.60
2018-09-30T23:06:58.618Z,14.60
2018-09-30T23:09:28.042Z,14.60
2018-09-30T23:11:57.481Z,14.60
2018-09-30T23:14:27.546Z,14.60
2018-09-30T23:16:56.880Z,14.60
2018-09-30T23:19:26.192Z,14.60
2018-09-30T23:21:55.767Z,14.60
2018-09-30T23:26:46.257Z,14.60
2018-09-30T23:29:15.652Z,14.50
2018-09-30T23:31:44.966Z,14.50
2018-09-30T23:34:14.278Z,14.50
2018-09-30T23:36:43.785Z,14.50
2018-09-30T23:39:13.955Z,14.50
2018-09-30T23:41:43.237Z,14.50
2018-09-30T23:44:12.661Z,14.50
2018-09-30T23:46:41.946Z,14.50
2018-09-30T23:49:11.400Z,14.50
2018-09-30T23:51:40.775Z,14.50
2018-09-30T23:54:10.249Z,14.50
2018-09-30T23:56:39.553Z,14.50
2018-09-30T23:59:11.018Z,14.50
